Time;durP1;ratioP1;P1;durP2;ratioP2;P2;SDS_P1;SDS_P2;PMS_P1;PMS_P2;Temp;Humidity;BMP_temperature;BMP_pressure;BME280_temperature;BME280_humidity;BME280_pressure;Samples;Min_cycle;Max_cycle;Signal;HPM_P1;HPM_P2
2023/03/22 00:01:10;;;;;;;6.28;4.00;;;10.40;1.00;;;;;;7364138;19;20010;-71
2023/03/22 00:03:40;;;;;;;4.93;3.85;;;10.40;1.00;;;;;;7363978;19;20466;-71
2023/03/22 00:06:11;;;;;;;7.13;4.18;;;10.30;1.00;;;;;;7387058;19;20018;-71
2023/03/22 00:08:42;;;;;;;6.85;4.63;;;10.30;1.00;;;;;;7365572;19;20020;-72
2023/03/22 00:11:13;;;;;;;7.22;4.45;;;10.30;1.00;;;;;;7365956;19;20011;-72
2023/03/22 00:13:45;;;;;;;8.20;4.45;;;10.30;1.00;;;;;;7362573;19;20022;-70
2023/03/22 00:16:16;;;;;;;7.00;4.68;;;10.30;1.00;;;;;;7366081;19;20038;-70
2023/03/22 00:18:46;;;;;;;6.95;5.50;;;10.30;1.00;;;;;;7364586;19;20514;-72
2023/03/22 00:21:17;;;;;;;7.22;5.13;;;10.30;1.00;;;;;;7365352;19;20010;-70
2023/03/22 00:23:47;;;;;;;7.35;4.97;;;10.30;1.00;;;;;;7385203;19;20014;-70
2023/03/22 00:26:18;;;;;;;7.43;4.95;;;10.30;1.00;;;;;;7364895;19;20753;-72
2023/03/22 00:28:51;;;;;;;8.88;5.18;;;10.20;1.00;;;;;;7363816;19;20034;-71
2023/03/22 00:31:21;;;;;;;7.05;4.60;;;10.20;1.00;;;;;;7366053;19;20003;-71
2023/03/22 00:33:51;;;;;;;9.77;5.28;;;10.10;1.00;;;;;;7370675;19;20014;-70
2023/03/22 00:36:21;;;;;;;8.23;5.60;;;10.00;1.00;;;;;;7367956;19;20086;-70
2023/03/22 00:38:51;;;;;;;9.27;5.63;;;10.00;1.00;;;;;;7393906;19;20019;-71
2023/03/22 00:41:22;;;;;;;8.82;5.65;;;10.00;1.00;;;;;;7370979;19;20010;-70
2023/03/22 00:43:55;;;;;;;8.38;5.65;;;9.90;1.00;;;;;;7369559;19;20007;-70
2023/03/22 00:46:24;;;;;;;8.43;5.70;;;9.90;1.00;;;;;;7371040;19;20011;-71
2023/03/22 00:48:54;;;;;;;9.07;5.45;;;9.80;1.00;;;;;;7371788;19;20089;-71
2023/03/22 00:51:24;;;;;;;9.38;5.47;;;9.80;1.00;;;;;;7368759;19;20010;-71
2023/03/22 00:53:54;;;;;;;9.43;5.55;;;9.70;1.00;;;;;;7392980;19;20010;-71
2023/03/22 00:56:27;;;;;;;7.82;5.70;;;9.70;1.00;;;;;;7369448;19;20606;-71
2023/03/22 00:59:00;;;;;;;7.78;6.05;;;9.70;1.00;;;;;;7369074;19;20006;-71
2023/03/22 01:01:30;;;;;;;13.50;6.57;;;9.60;1.00;;;;;;7370710;19;20019;-71
2023/03/22 01:04:00;;;;;;;7.47;5.85;;;9.60;1.00;;;;;;7369122;19;20018;-71
2023/03/22 01:06:30;;;;;;;8.82;5.88;;;9.70;1.00;;;;;;7371144;19;20014;-71
2023/03/22 01:09:00;;;;;;;9.75;6.07;;;9.70;1.00;;;;;;7392419;19;20010;-72
2023/03/22 01:11:30;;;;;;;8.93;5.50;;;9.60;1.00;;;;;;7370801;19;20020;-71
2023/03/22 01:14:02;;;;;;;9.57;6.07;;;9.60;1.00;;;;;;7368185;19;20015;-71
2023/03/22 01:16:32;;;;;;;9.88;6.03;;;9.60;1.00;;;;;;7370261;19;20016;-71
2023/03/22 01:19:02;;;;;;;7.63;5.28;;;9.70;1.00;;;;;;7369345;19;20014;-70
2023/03/22 01:21:33;;;;;;;12.18;5.85;;;9.70;1.00;;;;;;7372126;19;20429;-71
2023/03/22 01:24:02;;;;;;;9.88;5.35;;;9.70;1.00;;;;;;7390446;19;20025;-71
2023/03/22 01:26:32;;;;;;;7.57;5.07;;;9.70;1.00;;;;;;7369387;19;20570;-71
2023/03/22 01:29:05;;;;;;;8.18;5.47;;;9.70;1.00;;;;;;7368433;19;20026;-71
2023/03/22 01:31:35;;;;;;;8.27;5.07;;;9.80;1.00;;;;;;7371051;19;20019;-71
2023/03/22 01:34:05;;;;;;;8.85;5.50;;;9.70;1.00;;;;;;7368126;19;20010;-72
2023/03/22 01:36:35;;;;;;;8.27;5.38;;;9.70;1.00;;;;;;7367616;19;20014;-69
2023/03/22 01:39:05;;;;;;;7.57;4.88;;;9.70;1.00;;;;;;7391586;19;20035;-70
2023/03/22 01:41:36;;;;;;;10.82;5.22;;;9.80;1.00;;;;;;7370153;19;20577;-71
2023/03/22 01:44:12;;;;;;;8.93;4.72;;;9.70;1.00;;;;;;7366761;19;20011;-71
2023/03/22 01:46:42;;;;;;;9.43;5.15;;;9.70;1.00;;;;;;7370761;19;20545;-71
2023/03/22 01:49:16;;;;;;;9.00;5.82;;;9.70;1.00;;;;;;7368156;19;20475;-71
2023/03/22 01:51:50;;;;;;;8.45;5.13;;;9.70;1.00;;;;;;7368995;19;20018;-71
2023/03/22 01:54:25;;;;;;;9.73;5.32;;;9.60;1.00;;;;;;7368208;19;20098;-71
2023/03/22 01:56:55;;;;;;;9.48;5.40;;;9.50;1.00;;;;;;7389756;19;20010;-72
2023/03/22 01:59:29;;;;;;;6.55;5.10;;;9.50;1.00;;;;;;7367741;19;20051;-72
2023/03/22 02:02:01;;;;;;;12.10;5.57;;;9.40;1.00;;;;;;7369617;19;20014;-71
2023/03/22 02:04:37;;;;;;;8.88;5.22;;;9.40;1.00;;;;;;7368972;19;20011;-71
2023/03/22 02:07:14;;;;;;;10.75;6.50;;;9.40;1.00;;;;;;7369966;19;20478;-71
2023/03/22 02:09:45;;;;;;;10.45;6.78;;;9.30;1.00;;;;;;7369528;19;20003;-71
2023/03/22 02:12:25;;;;;;;7.35;6.05;;;9.30;1.00;;;;;;7368339;19;20014;-71
2023/03/22 02:15:10;;;;;;;14.52;6.95;;;9.30;1.00;;;;;;7393246;19;20601;-71
2023/03/22 02:17:51;;;;;;;9.90;6.53;;;9.30;1.00;;;;;;7372426;19;20022;-69
2023/03/22 02:20:56;;;;;;;9.80;6.50;;;9.20;1.00;;;;;;7366026;19;20066;-71
2023/03/22 02:24:02;;;;;;;11.82;6.47;;;9.20;1.00;;;;;;7366658;19;20011;-71
2023/03/22 02:26:46;;;;;;;10.07;6.60;;;9.10;1.50;;;;;;7393603;19;20014;-71
2023/03/22 02:29:21;;;;;;;12.40;6.07;;;9.10;2.00;;;;;;7400420;19;20007;-71
2023/03/22 02:32:00;;;;;;;;;;;9.10;2.50;;;;;;7393766;19;20009;-69
2023/03/22 02:34:54;;;;;;;12.13;7.18;;;9.00;3.60;;;;;;7370012;19;20355;-71
2023/03/22 02:37:43;;;;;;;12.05;6.20;;;9.00;3.70;;;;;;7366618;19;20022;-71
2023/03/22 02:40:18;;;;;;;12.32;6.38;;;9.00;3.60;;;;;;7368103;19;20089;-71
2023/03/22 02:42:59;;;;;;;7.45;5.00;;;9.00;3.80;;;;;;7367255;19;20029;-71
2023/03/22 02:45:35;;;;;;;9.80;5.78;;;9.10;4.20;;;;;;7368037;19;20352;-71
2023/03/22 02:48:10;;;;;;;9.23;5.43;;;9.00;3.70;;;;;;7388788;19;20010;-71
2023/03/22 02:50:45;;;;;;;6.03;4.97;;;8.90;4.40;;;;;;7367013;19;20022;-72
2023/03/22 02:53:20;;;;;;;11.88;5.50;;;9.00;4.10;;;;;;7366637;19;20016;-71
2023/03/22 02:55:57;;;;;;;10.00;5.35;;;8.90;4.10;;;;;;7367633;19;20010;-72
2023/03/22 02:58:30;;;;;;;7.88;4.78;;;9.00;4.10;;;;;;7366738;19;20098;-72
2023/03/22 03:01:04;;;;;;;7.85;4.88;;;9.00;3.70;;;;;;7367256;19;20007;-71
2023/03/22 03:03:36;;;;;;;8.20;5.03;;;8.90;4.00;;;;;;7363898;19;20072;-72
2023/03/22 03:06:11;;;;;;;9.35;4.90;;;8.90;4.10;;;;;;7377505;19;20027;-71
2023/03/22 03:08:42;;;;;;;6.97;5.10;;;8.90;3.80;;;;;;7366853;19;20058;-71
2023/03/22 03:11:15;;;;;;;10.57;4.85;;;8.90;4.10;;;;;;7367864;19;20017;-71
2023/03/22 03:13:48;;;;;;;8.32;4.93;;;8.90;4.00;;;;;;7363250;19;20048;-71
2023/03/22 03:16:21;;;;;;;6.40;4.50;;;8.90;3.50;;;;;;7366287;19;20006;-71
2023/03/22 03:18:59;;;;;;;5.90;4.32;;;8.80;3.10;;;;;;7365681;19;20026;-71
2023/03/22 03:21:37;;;;;;;6.72;4.50;;;8.80;3.70;;;;;;7366115;19;20886;-71
2023/03/22 03:24:21;;;;;;;7.18;4.85;;;8.80;4.00;;;;;;7387660;19;20513;-71
2023/03/22 03:27:02;;;;;;;5.43;4.20;;;8.80;4.00;;;;;;7366156;19;20053;-71
2023/03/22 03:29:37;;;;;;;6.68;4.15;;;8.70;3.90;;;;;;7365036;19;20082;-72
2023/03/22 03:32:12;;;;;;;6.32;4.68;;;8.70;4.00;;;;;;7365319;19;20015;-71
2023/03/22 03:34:48;;;;;;;6.00;4.30;;;8.70;3.90;;;;;;7363439;19;20014;-71
2023/03/22 03:37:21;;;;;;;6.68;4.57;;;8.60;3.90;;;;;;7365925;19;20034;-71
2023/03/22 03:39:56;;;;;;;6.60;4.33;;;8.60;3.90;;;;;;7363695;19;20027;-71
2023/03/22 03:42:31;;;;;;;6.43;4.40;;;8.60;4.30;;;;;;7364296;19;20035;-71
2023/03/22 03:45:02;;;;;;;6.60;4.47;;;8.60;4.00;;;;;;7386855;19;20014;-70
2023/03/22 03:47:33;;;;;;;6.85;4.03;;;8.60;3.90;;;;;;7365949;19;20019;-71
2023/03/22 03:50:03;;;;;;;9.55;4.53;;;8.60;3.90;;;;;;7363674;19;20029;-71
2023/03/22 03:52:34;;;;;;;5.35;3.88;;;8.50;3.90;;;;;;7364434;19;20482;-71
2023/03/22 03:55:04;;;;;;;5.38;4.00;;;8.50;3.90;;;;;;7364912;19;20014;-71
2023/03/22 03:57:37;;;;;;;7.45;3.90;;;8.50;3.90;;;;;;7363881;19;20067;-71
2023/03/22 04:00:08;;;;;;;7.38;4.07;;;8.50;3.90;;;;;;7386747;19;20087;-71
2023/03/22 04:02:38;;;;;;;9.23;4.40;;;8.50;3.80;;;;;;7365520;19;20090;-69
2023/03/22 04:05:10;;;;;;;6.15;4.32;;;8.40;4.40;;;;;;7362681;19;20336;-69
2023/03/22 04:07:40;;;;;;;6.03;4.43;;;8.40;4.80;;;;;;7370493;19;20106;-69
2023/03/22 04:10:11;;;;;;;8.63;4.18;;;8.40;4.80;;;;;;7372596;19;20011;-70
2023/03/22 04:12:43;;;;;;;7.47;4.20;;;8.30;5.60;;;;;;7370674;19;20010;-70
2023/03/22 04:15:13;;;;;;;5.85;4.20;;;8.20;6.10;;;;;;7386868;19;20011;-69
2023/03/22 04:17:45;;;;;;;7.15;4.57;;;8.20;6.40;;;;;;7391860;19;20500;-70
2023/03/22 04:20:16;;;;;;;6.70;4.70;;;8.20;6.60;;;;;;7369550;19;20011;-69
2023/03/22 04:22:47;;;;;;;6.68;3.72;;;8.10;6.80;;;;;;7371673;19;20025;-69
2023/03/22 04:25:21;;;;;;;8.50;4.47;;;8.00;7.20;;;;;;7372278;19;20010;-70
2023/03/22 04:27:54;;;;;;;7.57;4.55;;;7.90;7.20;;;;;;7370871;19;20022;-70
2023/03/22 04:30:26;;;;;;;9.27;4.47;;;7.90;8.20;;;;;;7371099;19;20482;-70
2023/03/22 04:32:56;;;;;;;7.45;4.13;;;7.90;8.00;;;;;;7393002;19;20543;-70
2023/03/22 04:35:26;;;;;;;7.10;5.32;;;8.00;8.00;;;;;;7370877;19;20010;-70
2023/03/22 04:37:56;;;;;;;8.38;4.82;;;8.00;7.80;;;;;;7371236;19;20085;-70
2023/03/22 04:40:30;;;;;;;8.52;4.40;;;8.00;7.50;;;;;;7369777;19;20030;-70
2023/03/22 04:43:03;;;;;;;6.82;4.20;;;8.00;7.50;;;;;;7369746;19;20482;-70
2023/03/22 04:45:34;;;;;;;9.77;4.55;;;8.10;7.30;;;;;;7371869;19;20466;-70
2023/03/22 04:48:06;;;;;;;10.93;5.05;;;8.10;7.20;;;;;;7393420;19;20015;-70
2023/03/22 04:50:36;;;;;;;8.98;4.95;;;8.30;6.40;;;;;;7369181;19;20482;-70
2023/03/22 04:53:08;;;;;;;7.40;4.85;;;8.30;5.60;;;;;;7370842;19;20074;-70
2023/03/22 04:55:38;;;;;;;10.75;5.78;;;8.30;5.40;;;;;;7369764;19;20006;-70
2023/03/22 04:58:10;;;;;;;10.32;5.85;;;8.30;5.30;;;;;;7370292;19;20014;-69
2023/03/22 05:00:40;;;;;;;9.38;5.50;;;8.30;5.40;;;;;;7361785;19;20015;-69
2023/03/22 05:03:11;;;;;;;8.95;5.72;;;8.20;6.60;;;;;;7391597;19;20410;-70
2023/03/22 05:05:41;;;;;;;9.85;5.90;;;8.20;6.20;;;;;;7369787;19;20018;-70
2023/03/22 05:08:13;;;;;;;10.75;5.50;;;8.10;7.80;;;;;;7370334;19;20097;-69
2023/03/22 05:10:42;;;;;;;7.60;4.97;;;8.10;6.80;;;;;;7369505;19;20106;-70
2023/03/22 05:13:15;;;;;;;8.65;5.32;;;8.10;6.50;;;;;;7371075;19;20036;-70
2023/03/22 05:15:46;;;;;;;8.40;5.30;;;8.10;6.10;;;;;;7392166;19;20027;-70
2023/03/22 05:18:15;;;;;;;8.13;4.85;;;8.20;5.70;;;;;;7387506;19;20482;-70
2023/03/22 05:20:45;;;;;;;8.65;4.60;;;8.20;5.30;;;;;;7369381;19;20033;-70
2023/03/22 05:23:17;;;;;;;9.45;5.47;;;8.20;5.00;;;;;;7370040;19;20013;-70
2023/03/22 05:25:48;;;;;;;6.28;4.70;;;8.20;4.20;;;;;;7381065;19;20018;-71
2023/03/22 05:28:21;;;;;;;8.27;4.95;;;8.20;3.60;;;;;;7391184;19;20010;-71
2023/03/22 05:30:51;;;;;;;8.95;5.32;;;8.20;3.90;;;;;;7369963;19;20395;-71
2023/03/22 05:33:26;;;;;;;6.53;4.03;;;8.10;3.60;;;;;;7367153;19;20022;-71
2023/03/22 05:35:56;;;;;;;6.82;4.90;;;8.10;4.00;;;;;;7369902;19;20002;-72
2023/03/22 05:38:26;;;;;;;10.07;4.53;;;8.20;4.00;;;;;;7367774;19;20014;-70
2023/03/22 05:40:56;;;;;;;6.07;4.47;;;8.20;3.70;;;;;;7367170;19;20095;-71
2023/03/22 05:43:29;;;;;;;8.07;4.95;;;8.20;3.30;;;;;;7389968;19;20130;-71
2023/03/22 05:45:59;;;;;;;6.53;4.68;;;8.30;3.10;;;;;;7370855;19;20514;-71
2023/03/22 05:48:28;;;;;;;8.35;4.85;;;8.40;2.30;;;;;;7368502;19;20018;-71
2023/03/22 05:50:58;;;;;;;8.20;5.00;;;8.40;1.70;;;;;;7370991;19;20021;-70
2023/03/22 05:53:28;;;;;;;8.93;4.82;;;8.50;1.30;;;;;;7369337;19;20135;-70
2023/03/22 05:55:59;;;;;;;7.78;4.88;;;8.50;1.10;;;;;;7371856;19;20018;-70
2023/03/22 05:58:33;;;;;;;5.82;4.43;;;8.50;1.00;;;;;;7388718;19;20019;-70
2023/03/22 06:01:07;;;;;;;6.65;4.40;;;8.40;1.10;;;;;;7369602;19;20077;-71
2023/03/22 06:03:37;;;;;;;11.20;5.05;;;8.50;1.00;;;;;;7391993;19;20018;-70
2023/03/22 06:06:09;;;;;;;9.18;4.57;;;8.60;1.00;;;;;;7404559;19;20023;-70
2023/03/22 06:08:39;;;;;;;8.32;4.38;;;8.70;1.00;;;;;;7398810;19;20014;-68
2023/03/22 06:11:10;;;;;;;9.88;4.70;;;8.80;1.00;;;;;;7372920;19;20102;-70
2023/03/22 06:13:42;;;;;;;7.68;4.13;;;8.80;1.00;;;;;;7390364;19;20475;-71
2023/03/22 06:16:12;;;;;;;8.45;4.20;;;8.90;1.00;;;;;;7369483;19;20387;-70
2023/03/22 06:18:42;;;;;;;7.20;3.80;;;9.00;1.00;;;;;;7365798;19;20011;-71
2023/03/22 06:21:12;;;;;;;6.18;4.20;;;9.10;1.00;;;;;;7369182;19;20041;-70
2023/03/22 06:23:42;;;;;;;6.18;3.88;;;9.20;1.00;;;;;;7367050;19;20014;-70
2023/03/22 06:26:12;;;;;;;6.57;3.30;;;9.40;1.00;;;;;;7368847;19;20367;-71
2023/03/22 06:28:44;;;;;;;7.18;3.25;;;9.50;1.00;;;;;;7388053;19;20010;-71
2023/03/22 06:31:14;;;;;;;6.20;3.50;;;9.60;1.00;;;;;;7368013;19;20011;-71
2023/03/22 06:33:45;;;;;;;6.03;3.50;;;9.50;1.00;;;;;;7366769;19;20027;-70
2023/03/22 06:36:15;;;;;;;6.93;3.42;;;9.70;1.00;;;;;;7368964;19;20006;-69
2023/03/22 06:38:44;;;;;;;12.30;3.80;;;9.80;1.00;;;;;;7366890;19;20023;-69
2023/03/22 06:41:14;;;;;;;5.78;3.28;;;9.80;1.00;;;;;;7366808;19;20007;-70
2023/03/22 06:43:47;;;;;;;7.00;3.67;;;9.90;1.00;;;;;;7389149;19;20015;-70
2023/03/22 06:46:16;;;;;;;8.10;3.80;;;10.00;1.00;;;;;;7367456;19;20016;-70
2023/03/22 06:48:46;;;;;;;4.93;3.33;;;10.10;1.00;;;;;;7366068;19;20003;-70
2023/03/22 06:51:16;;;;;;;5.72;3.00;;;10.20;1.00;;;;;;7367423;19;20010;-70
2023/03/22 06:53:47;;;;;;;8.65;3.22;;;10.30;1.00;;;;;;7365259;19;20014;-70
2023/03/22 06:56:17;;;;;;;5.90;2.83;;;10.40;1.00;;;;;;7367672;19;20014;-70
2023/03/22 06:58:50;;;;;;;10.10;3.60;;;10.50;1.00;;;;;;7387707;19;20446;-69
2023/03/22 07:01:20;;;;;;;4.38;2.95;;;10.60;1.00;;;;;;7363466;19;20014;-71
2023/03/22 07:03:50;;;;;;;6.13;2.95;;;10.70;1.00;;;;;;7366961;19;20015;-70
2023/03/22 07:06:20;;;;;;;6.47;3.35;;;10.80;1.00;;;;;;7366426;19;20010;-70
2023/03/22 07:08:50;;;;;;;7.47;2.60;;;10.90;1.00;;;;;;7364763;19;20359;-69
2023/03/22 07:11:21;;;;;;;4.93;2.78;;;11.00;1.00;;;;;;7365122;19;20017;-71
2023/03/22 07:13:54;;;;;;;7.25;3.33;;;11.10;1.00;;;;;;7366223;19;20010;-71
2023/03/22 07:16:24;;;;;;;4.93;2.80;;;11.20;1.00;;;;;;7387251;19;20027;-71
2023/03/22 07:18:54;;;;;;;5.65;3.05;;;11.30;1.00;;;;;;7364677;19;20379;-70
2023/03/22 07:21:24;;;;;;;5.47;2.67;;;11.40;1.00;;;;;;7364303;19;20038;-70
2023/03/22 07:23:54;;;;;;;5.95;2.95;;;11.50;1.00;;;;;;7364018;19;20011;-70
2023/03/22 07:26:25;;;;;;;5.00;2.80;;;11.50;1.00;;;;;;7365460;19;20002;-73
2023/03/22 07:28:57;;;;;;;6.15;3.30;;;11.60;1.00;;;;;;7366156;19;20014;-71
2023/03/22 07:31:28;;;;;;;7.72;2.92;;;11.70;1.00;;;;;;7384282;19;20542;-70
2023/03/22 07:33:58;;;;;;;5.70;2.85;;;11.90;1.00;;;;;;7365816;19;20040;-70
2023/03/22 07:36:27;;;;;;;4.65;2.80;;;12.00;1.00;;;;;;7365799;19;20022;-70
2023/03/22 07:38:57;;;;;;;2.80;2.00;;;12.10;1.00;;;;;;7364523;19;20015;-72
2023/03/22 07:41:29;;;;;;;3.22;2.15;;;12.20;1.00;;;;;;7365978;19;20014;-69
2023/03/22 07:44:01;;;;;;;4.47;2.40;;;12.40;1.00;;;;;;7373333;19;20119;-70
2023/03/22 07:46:46;;;;;;;5.90;2.40;;;12.50;1.00;;;;;;7395107;19;20011;-70
2023/03/22 07:49:16;;;;;;;5.88;2.13;;;12.60;1.00;;;;;;7372083;19;20354;-70
2023/03/22 07:51:46;;;;;;;4.40;2.50;;;12.80;1.00;;;;;;7372337;19;20014;-71
2023/03/22 07:54:16;;;;;;;4.60;1.95;;;12.80;1.00;;;;;;7372022;19;20078;-71
2023/03/22 07:57:01;;;;;;;5.60;2.38;;;13.00;1.00;;;;;;7373494;19;20023;-70
2023/03/22 07:59:33;;;;;;;2.70;2.13;;;13.10;1.00;;;;;;7371233;19;20028;-70
2023/03/22 08:02:03;;;;;;;5.88;2.30;;;13.20;1.00;;;;;;7371611;19;20421;-71
2023/03/22 08:04:33;;;;;;;3.35;1.80;;;13.30;1.00;;;;;;7393342;19;20036;-71
2023/03/22 08:07:02;;;;;;;2.72;1.80;;;13.40;1.00;;;;;;7372797;19;20011;-69
2023/03/22 08:09:32;;;;;;;2.50;1.42;;;13.40;1.00;;;;;;7370538;19;20017;-69
2023/03/22 08:12:02;;;;;;;3.58;1.67;;;13.40;1.00;;;;;;7371821;19;20530;-69
2023/03/22 08:14:35;;;;;;;4.22;1.55;;;13.40;1.00;;;;;;7371383;19;20038;-71
2023/03/22 08:17:06;;;;;;;5.22;2.40;;;13.50;1.00;;;;;;7372623;19;20015;-70
2023/03/22 08:19:36;;;;;;;3.25;1.50;;;13.70;1.00;;;;;;7390949;19;20041;-70
2023/03/22 08:22:06;;;;;;;2.20;1.52;;;13.80;1.00;;;;;;7371321;19;20014;-70
2023/03/22 08:24:39;;;;;;;4.18;1.90;;;14.10;1.00;;;;;;7370623;19;20010;-71
2023/03/22 08:27:09;;;;;;;5.20;2.00;;;14.10;1.00;;;;;;7372605;19;20046;-70
2023/03/22 08:29:42;;;;;;;3.10;1.70;;;14.20;1.00;;;;;;7371187;19;20003;-70
2023/03/22 08:32:11;;;;;;;2.38;1.40;;;14.30;1.00;;;;;;7371266;19;20007;-70
2023/03/22 08:34:42;;;;;;;3.47;1.52;;;14.40;1.00;;;;;;7392666;19;20014;-70
2023/03/22 08:37:13;;;;;;;4.00;1.55;;;14.40;1.00;;;;;;7371424;19;20011;-70
2023/03/22 08:39:44;;;;;;;3.53;1.85;;;14.50;1.00;;;;;;7369728;19;20010;-70
2023/03/22 08:42:14;;;;;;;1.80;1.10;;;14.50;1.00;;;;;;7371341;19;20010;-70
2023/03/22 08:44:47;;;;;;;1.90;0.98;;;14.60;1.00;;;;;;7370323;19;20018;-70
2023/03/22 08:47:16;;;;;;;2.95;0.80;;;14.60;1.00;;;;;;7371918;19;20016;-70
2023/03/22 08:49:46;;;;;;;2.03;0.85;;;14.60;1.00;;;;;;7391010;19;20542;-70
2023/03/22 08:52:16;;;;;;;1.58;0.88;;;14.80;1.00;;;;;;7369578;19;20006;-70
2023/03/22 08:54:46;;;;;;;2.00;0.63;;;14.80;1.00;;;;;;7369674;19;20062;-71
2023/03/22 08:57:16;;;;;;;4.50;1.08;;;14.90;1.00;;;;;;7371161;19;20015;-70
2023/03/22 08:59:49;;;;;;;2.22;0.90;;;14.90;1.00;;;;;;7369858;19;20022;-70
2023/03/22 09:02:19;;;;;;;1.63;0.60;;;14.80;1.00;;;;;;7371280;19;20533;-70
2023/03/22 09:04:48;;;;;;;1.17;0.80;;;15.00;1.00;;;;;;7374068;19;20006;-71
2023/03/22 09:07:19;;;;;;;2.97;1.20;;;15.10;1.00;;;;;;7392072;19;20456;-71
2023/03/22 09:09:48;;;;;;;3.72;0.90;;;15.20;1.00;;;;;;7368950;19;20027;-71
2023/03/22 09:12:18;;;;;;;3.35;0.70;;;15.10;1.00;;;;;;7371227;19;20009;-70
2023/03/22 09:14:51;;;;;;;2.22;0.80;;;15.40;1.00;;;;;;7369122;19;20007;-71
2023/03/22 09:17:21;;;;;;;2.13;0.90;;;15.30;1.00;;;;;;7368977;19;20006;-71
2023/03/22 09:19:51;;;;;;;3.28;1.20;;;15.40;1.00;;;;;;7368653;19;20022;-70
2023/03/22 09:22:38;;;;;;;2.45;0.90;;;15.50;1.00;;;;;;7390606;19;20022;-71
2023/03/22 09:25:09;;;;;;;1.83;1.10;;;15.70;1.00;;;;;;7369410;19;20034;-69
2023/03/22 09:27:41;;;;;;;3.15;0.90;;;15.40;1.00;;;;;;7368971;19;20007;-70
2023/03/22 09:30:15;;;;;;;1.88;0.90;;;15.10;1.00;;;;;;7368293;19;20474;-71
2023/03/22 09:32:44;;;;;;;1.33;0.97;;;15.40;1.00;;;;;;7369533;19;20486;-70
2023/03/22 09:35:15;;;;;;;3.47;1.52;;;15.60;1.00;;;;;;7369439;19;20698;-71
2023/03/22 09:37:45;;;;;;;2.30;1.20;;;15.60;1.00;;;;;;7389735;19;20010;-71
2023/03/22 09:40:16;;;;;;;2.85;1.00;;;15.70;1.00;;;;;;7367566;19;20012;-69
2023/03/22 09:42:49;;;;;;;2.60;1.13;;;16.00;1.00;;;;;;7368444;19;20015;-71
2023/03/22 09:45:29;;;;;;;2.97;1.00;;;15.80;1.00;;;;;;7368648;19;20082;-70
2023/03/22 09:48:00;;;;;;;3.63;1.00;;;16.30;1.00;;;;;;7370085;19;20088;-70
2023/03/22 09:50:33;;;;;;;1.95;1.17;;;16.30;1.00;;;;;;7368125;19;20017;-71
2023/03/22 09:53:03;;;;;;;2.20;1.23;;;16.40;1.00;;;;;;7368085;19;20014;-71
2023/03/22 09:55:40;;;;;;;3.35;0.95;;;16.00;1.00;;;;;;7389853;19;20490;-70
2023/03/22 09:58:23;;;;;;;2.60;1.13;;;16.10;1.00;;;;;;7368849;19;20011;-71
2023/03/22 10:01:01;;;;;;;1.65;0.90;;;16.20;1.00;;;;;;7366227;19;20015;-71
2023/03/22 10:03:52;;;;;;;2.80;1.00;;;16.40;1.00;;;;;;7366531;19;20474;-70
2023/03/22 10:06:24;;;;;;;3.65;1.17;;;16.30;1.00;;;;;;7368214;19;20014;-70
2023/03/22 10:09:07;;;;;;;1.80;0.90;;;16.70;1.00;;;;;;7368174;19;20010;-70
2023/03/22 10:11:44;;;;;;;2.22;1.45;;;16.70;1.00;;;;;;7368296;19;20010;-70
2023/03/22 10:14:37;;;;;;;2.25;1.02;;;15.70;1.00;;;;;;7367401;19;20058;-71
2023/03/22 10:17:16;;;;;;;1.83;1.00;;;15.60;1.00;;;;;;7369411;19;20079;-69
2023/03/22 10:19:54;;;;;;;1.58;1.10;;;15.20;1.00;;;;;;7372957;19;20382;-70
2023/03/22 10:22:29;;;;;;;1.23;0.98;;;15.80;1.00;;;;;;7387765;19;20040;-70
2023/03/22 10:25:01;;;;;;;1.90;1.10;;;16.10;1.00;;;;;;7366966;19;20078;-69
2023/03/22 10:27:33;;;;;;;1.58;0.88;;;16.50;1.00;;;;;;7367737;19;20067;-70
2023/03/22 10:30:08;;;;;;;1.65;0.70;;;16.60;1.00;;;;;;7366532;19;20110;-70
2023/03/22 10:32:44;;;;;;;2.25;1.20;;;17.00;1.00;;;;;;7366226;19;20006;-71
2023/03/22 10:35:26;;;;;;;1.42;0.75;;;16.80;1.00;;;;;;7368105;19;20077;-71
2023/03/22 10:37:59;;;;;;;3.05;0.95;;;16.80;1.00;;;;;;7366959;19;20010;-71
2023/03/22 10:40:32;;;;;;;2.10;1.05;;;16.40;1.00;;;;;;7388432;19;20014;-71
2023/03/22 10:43:07;;;;;;;1.10;0.60;;;17.00;1.00;;;;;;7366561;19;20018;-70
2023/03/22 10:45:38;;;;;;;1.75;0.90;;;16.90;1.00;;;;;;7367735;19;20470;-71
2023/03/22 10:48:16;;;;;;;1.63;0.85;;;17.50;1.00;;;;;;7367686;19;20007;-70
2023/03/22 10:50:48;;;;;;;3.10;1.10;;;17.80;1.00;;;;;;7366048;19;20042;-70
2023/03/22 10:53:26;;;;;;;2.63;0.70;;;17.90;1.00;;;;;;7368814;19;20017;-70
2023/03/22 10:55:56;;;;;;;3.50;1.13;;;18.10;1.00;;;;;;7369290;19;20834;-69
2023/03/22 10:58:31;;;;;;;1.92;0.80;;;18.00;1.00;;;;;;7385684;19;20510;-70
2023/03/22 11:01:07;;;;;;;1.33;0.90;;;18.30;1.00;;;;;;7365069;19;20015;-70
2023/03/22 11:03:44;;;;;;;1.58;1.00;;;18.30;1.00;;;;;;7366219;19;20085;-70
2023/03/22 11:06:16;;;;;;;1.58;0.93;;;17.70;1.00;;;;;;7366971;19;20014;-70
2023/03/22 11:08:49;;;;;;;3.10;0.95;;;17.70;1.00;;;;;;7365771;19;20094;-70
2023/03/22 11:11:24;;;;;;;2.22;1.50;;;17.60;1.00;;;;;;7366210;19;20402;-70
2023/03/22 11:13:57;;;;;;;2.45;1.17;;;17.70;1.00;;;;;;7364973;19;20421;-70
2023/03/22 11:16:28;;;;;;;2.75;1.08;;;17.30;1.00;;;;;;7385264;19;20007;-70
2023/03/22 11:19:03;;;;;;;1.98;1.27;;;17.30;1.00;;;;;;7365039;19;20070;-70
2023/03/22 11:21:35;;;;;;;1.20;1.00;;;17.70;1.00;;;;;;7363288;19;20010;-70
2023/03/22 11:24:08;;;;;;;1.95;1.00;;;17.80;1.00;;;;;;7366546;19;20018;-70
2023/03/22 11:26:39;;;;;;;3.50;0.93;;;17.80;1.00;;;;;;7366757;19;20007;-70
2023/03/22 11:29:15;;;;;;;1.67;0.73;;;18.20;1.00;;;;;;7365368;19;20389;-71
2023/03/22 11:31:59;;;;;;;2.58;0.88;;;17.50;1.00;;;;;;7386950;19;20026;-71
2023/03/22 11:34:33;;;;;;;4.63;1.10;;;17.40;1.00;;;;;;7364185;19;20014;-70
2023/03/22 11:37:03;;;;;;;1.48;0.80;;;17.70;1.00;;;;;;7364978;19;20014;-70
2023/03/22 11:39:32;;;;;;;2.90;0.90;;;18.00;1.00;;;;;;7362925;19;20029;-70
2023/03/22 11:42:07;;;;;;;2.97;0.95;;;17.90;1.00;;;;;;7364966;19;19999;-70
2023/03/22 11:44:37;;;;;;;1.13;0.85;;;17.60;1.00;;;;;;7365842;19;20020;-71
2023/03/22 11:47:13;;;;;;;2.50;1.38;;;17.50;1.00;;;;;;7364845;19;20122;-71
2023/03/22 11:49:50;;;;;;;4.63;3.47;;;17.70;1.00;;;;;;7383940;19;20102;-70
2023/03/22 11:52:23;;;;;;;1.65;1.00;;;18.10;1.00;;;;;;7365343;19;20030;-70
2023/03/22 11:54:54;;;;;;;1.80;0.90;;;18.50;1.00;;;;;;7365235;19;20586;-70
2023/03/22 11:57:27;;;;;;;1.73;0.95;;;18.20;1.00;;;;;;7365311;19;20021;-69
2023/03/22 12:00:05;;;;;;;1.85;0.98;;;17.60;1.00;;;;;;7363041;19;20017;-70
2023/03/22 12:02:40;;;;;;;2.35;1.00;;;17.80;1.00;;;;;;7363850;19;20006;-69
2023/03/22 12:05:18;;;;;;;4.35;1.15;;;18.10;1.00;;;;;;7363159;19;20021;-69
2023/03/22 12:07:52;;;;;;;2.83;1.08;;;18.50;1.00;;;;;;7370627;19;20082;-69
2023/03/22 12:10:27;;;;;;;1.30;0.93;;;18.70;1.00;;;;;;7383852;19;20018;-70
2023/03/22 12:13:01;;;;;;;2.22;1.13;;;18.80;1.00;;;;;;7356935;19;20014;-70
2023/03/22 12:15:33;;;;;;;1.75;0.73;;;18.60;1.00;;;;;;7360416;19;20050;-69
2023/03/22 12:18:08;;;;;;;6.82;1.08;;;18.10;1.00;;;;;;7363651;19;20014;-71
2023/03/22 12:20:48;;;;;;;1.15;0.80;;;18.30;1.00;;;;;;7361707;19;20018;-71
2023/03/22 12:23:20;;;;;;;1.63;0.77;;;18.60;1.00;;;;;;7365971;19;20474;-72
2023/03/22 12:25:54;;;;;;;3.17;1.00;;;18.50;1.00;;;;;;7364361;19;20259;-71
2023/03/22 12:28:30;;;;;;;4.43;1.50;;;18.60;1.00;;;;;;7389701;19;20103;-70
2023/03/22 12:31:02;;;;;;;3.83;1.10;;;18.10;1.00;;;;;;7369702;19;20074;-70
2023/03/22 12:33:35;;;;;;;1.55;1.00;;;17.90;1.00;;;;;;7370953;19;20031;-71
2023/03/22 12:36:09;;;;;;;1.42;0.80;;;17.90;1.00;;;;;;7370843;19;20097;-71
2023/03/22 12:38:42;;;;;;;1.65;0.60;;;18.00;1.00;;;;;;7371385;19;20006;-70
2023/03/22 12:41:16;;;;;;;1.50;0.65;;;18.50;1.00;;;;;;7368918;19;20024;-71
2023/03/22 12:43:51;;;;;;;1.52;0.75;;;18.30;1.00;;;;;;7390924;19;20377;-72
2023/03/22 12:46:24;;;;;;;1.05;0.70;;;18.30;1.00;;;;;;7370178;19;20011;-71
2023/03/22 12:48:57;;;;;;;1.55;0.77;;;18.30;1.00;;;;;;7366927;19;20006;-71
2023/03/22 12:51:30;;;;;;;0.77;0.65;;;18.00;1.00;;;;;;7368106;19;20035;-70
2023/03/22 12:54:01;;;;;;;0.88;0.60;;;18.10;1.00;;;;;;7367822;19;20014;-71
2023/03/22 12:56:36;;;;;;;0.80;0.43;;;18.40;1.00;;;;;;7368790;19;20538;-71
2023/03/22 12:59:10;;;;;;;1.77;0.70;;;18.60;1.00;;;;;;7370703;19;20018;-70
2023/03/22 13:01:50;;;;;;;1.02;0.50;;;19.00;1.00;;;;;;7385351;19;20014;-70
2023/03/22 13:04:32;;;;;;;2.05;0.60;;;19.10;1.00;;;;;;7365597;19;20029;-70
2023/03/22 13:07:18;;;;;;;1.92;0.80;;;19.60;1.00;;;;;;7369896;19;20642;-70
2023/03/22 13:09:49;;;;;;;1.30;0.80;;;19.80;1.00;;;;;;7363529;19;20094;-71
2023/03/22 13:12:34;;;;;;;3.40;0.52;;;19.50;1.00;;;;;;7363404;19;20011;-70
2023/03/22 13:15:30;;;;;;;0.52;0.40;;;19.50;1.00;;;;;;7367954;19;20118;-71
2023/03/22 13:18:31;;;;;;;1.13;0.68;;;19.60;1.00;;;;;;7370698;19;20109;-70
2023/03/22 13:21:14;;;;;;;1.30;0.60;;;19.80;1.00;;;;;;7364243;19;20042;-70
2023/03/22 13:24:21;;;;;;;1.42;0.60;;;19.60;1.00;;;;;;7368736;19;20015;-70
2023/03/22 13:26:54;;;;;;;0.85;0.63;;;19.50;1.00;;;;;;7370107;19;20491;-70
2023/03/22 13:29:25;;;;;;;2.28;0.70;;;19.20;1.00;;;;;;7368302;19;20048;-71
2023/03/22 13:31:58;;;;;;;2.00;0.90;;;19.40;1.00;;;;;;7368203;19;20821;-71